createdAt,value
2016-03-27T00:00:07.667Z,0
2016-03-27T00:01:07.689Z,0
2016-03-27T00:02:07.675Z,0
2016-03-27T00:03:07.694Z,0
2016-03-27T00:04:07.681Z,0
2016-03-27T00:05:07.700Z,0
2016-03-27T00:06:07.671Z,0
2016-03-27T00:07:07.689Z,0
2016-03-27T00:08:07.661Z,0
2016-03-27T00:09:07.664Z,0
2016-03-27T00:10:07.651Z,0
2016-03-27T00:11:07.654Z,0
2016-03-27T00:12:07.672Z,0
2016-03-27T00:13:07.659Z,0
2016-03-27T00:14:07.693Z,0
2016-03-27T00:15:07.664Z,0
2016-03-27T00:16:07.698Z,0
2016-03-27T00:17:07.684Z,0
2016-03-27T00:18:07.682Z,0
2016-03-27T00:19:07.655Z,0
2016-03-27T00:20:07.643Z,0
2016-03-27T00:21:07.614Z,0
2016-03-27T00:22:07.555Z,0
2016-03-27T00:23:07.562Z,0
2016-03-27T00:24:07.543Z,0
2016-03-27T00:25:07.572Z,0
2016-03-27T00:26:07.522Z,0
2016-03-27T00:27:07.551Z,0
2016-03-27T00:28:07.534Z,0
2016-03-27T00:29:07.534Z,0
2016-03-27T00:30:07.566Z,0
2016-03-27T00:31:07.535Z,0
2016-03-27T00:32:07.520Z,0
2016-03-27T00:33:07.520Z,0
2016-03-27T00:34:07.538Z,0
2016-03-27T00:35:07.509Z,0
2016-03-27T00:36:07.511Z,0
2016-03-27T00:37:07.496Z,0
2016-03-27T00:38:07.515Z,0
2016-03-27T00:39:07.518Z,0
2016-03-27T00:40:07.536Z,0
2016-03-27T00:41:07.492Z,0
2016-03-27T00:42:07.479Z,0
2016-03-27T00:43:07.543Z,0
2016-03-27T00:44:07.501Z,0
2016-03-27T00:45:10.518Z,0
2016-03-27T00:46:07.505Z,0
2016-03-27T00:47:07.508Z,0
2016-03-27T00:48:07.526Z,0
2016-03-27T00:49:07.514Z,0
2016-03-27T00:50:07.531Z,0
2016-03-27T00:51:07.503Z,0
2016-03-27T00:52:07.537Z,0
2016-03-27T00:53:07.493Z,0
2016-03-27T00:54:07.495Z,0
2016-03-27T00:55:07.482Z,0
2016-03-27T00:56:07.501Z,0
2016-03-27T00:57:10.488Z,0
2016-03-27T00:58:07.491Z,0
2016-03-27T00:59:07.462Z,0
2016-03-27T01:00:07.496Z,0
2016-03-27T01:01:10.514Z,0
2016-03-27T01:02:07.470Z,0
2016-03-27T01:03:07.488Z,0
2016-03-27T01:04:07.491Z,0
2016-03-27T01:05:07.494Z,0
2016-03-27T01:06:10.480Z,0
2016-03-27T01:07:07.359Z,0
2016-03-27T01:08:07.490Z,0
2016-03-27T01:09:07.477Z,0
2016-03-27T01:10:07.495Z,0
2016-03-27T01:11:07.483Z,0
2016-03-27T01:12:07.672Z,0
2016-03-27T01:13:07.473Z,0
2016-03-27T01:14:07.475Z,0
2016-03-27T01:15:07.461Z,0
2016-03-27T01:16:07.481Z,0
2016-03-27T01:17:07.483Z,0
2016-03-27T01:18:07.454Z,0
2016-03-27T01:19:07.473Z,0
2016-03-27T01:20:07.491Z,0
2016-03-27T01:21:07.510Z,0
2016-03-27T01:22:07.450Z,0
2016-03-27T01:23:08.937Z,0
2016-03-27T01:24:08.877Z,0
2016-03-27T01:25:07.443Z,0
2016-03-27T01:26:07.460Z,0
2016-03-27T01:27:07.728Z,0
2016-03-27T01:28:07.482Z,0
2016-03-27T01:29:07.468Z,0
2016-03-27T01:30:07.471Z,0
2016-03-27T01:31:07.443Z,0
2016-03-27T01:32:07.492Z,0
2016-03-27T01:33:07.448Z,0
2016-03-27T01:34:07.467Z,0
2016-03-27T01:35:07.453Z,0
2016-03-27T01:36:07.425Z,0
2016-03-27T01:37:07.459Z,0
2016-03-27T01:38:07.430Z,0
2016-03-27T01:39:07.433Z,0
2016-03-27T01:40:07.420Z,0
2016-03-27T01:41:07.423Z,0
2016-03-27T01:42:07.410Z,0
2016-03-27T01:43:07.256Z,0
2016-03-27T01:44:07.430Z,0
2016-03-27T01:45:07.433Z,0
2016-03-27T01:46:07.420Z,0
2016-03-27T01:47:07.439Z,0
2016-03-27T01:48:07.269Z,0
2016-03-27T01:49:07.413Z,0
2016-03-27T01:50:07.431Z,0
2016-03-27T01:51:07.403Z,0
2016-03-27T01:52:07.421Z,0
2016-03-27T01:53:07.393Z,0
2016-03-27T01:54:07.396Z,0
2016-03-27T01:55:07.398Z,0
2016-03-27T01:56:07.416Z,0
2016-03-27T01:57:07.404Z,0
2016-03-27T01:58:07.421Z,0
2016-03-27T01:59:07.377Z,0
2016-03-27T02:00:07.427Z,0
2016-03-27T02:01:07.398Z,0
2016-03-27T02:02:07.510Z,0
2016-03-27T02:03:07.404Z,0
2016-03-27T02:04:07.375Z,0
2016-03-27T02:05:07.379Z,0
2016-03-27T02:06:07.381Z,0
2016-03-27T02:07:07.467Z,0
2016-03-27T02:08:07.394Z,0
2016-03-27T02:09:07.365Z,0
2016-03-27T02:10:07.828Z,0
2016-03-27T02:11:07.459Z,0
2016-03-27T02:12:07.368Z,0
2016-03-27T02:13:07.386Z,0
2016-03-27T02:14:07.374Z,0
2016-03-27T02:15:07.361Z,0
2016-03-27T02:16:10.347Z,0
2016-03-27T02:17:07.459Z,0
2016-03-27T02:18:07.353Z,0
2016-03-27T02:19:07.340Z,0
2016-03-27T02:20:10.343Z,0
2016-03-27T02:21:07.377Z,0
2016-03-27T02:22:07.348Z,0
2016-03-27T02:23:07.336Z,0
2016-03-27T02:24:07.353Z,0
2016-03-27T02:25:07.324Z,0
2016-03-27T02:26:07.171Z,0
2016-03-27T02:27:07.315Z,0
2016-03-27T02:28:07.318Z,0
2016-03-27T02:29:10.352Z,0
2016-03-27T02:30:07.307Z,0
2016-03-27T02:31:07.326Z,0
2016-03-27T02:32:07.094Z,0
2016-03-27T02:33:07.315Z,0
2016-03-27T02:34:07.302Z,0
2016-03-27T02:35:07.320Z,0
2016-03-27T02:36:07.340Z,0
2016-03-27T02:37:07.310Z,0
2016-03-27T02:38:07.298Z,0
2016-03-27T02:39:07.332Z,0
2016-03-27T02:40:07.303Z,0
2016-03-27T02:41:07.306Z,0
2016-03-27T02:42:07.293Z,0
2016-03-27T02:43:07.326Z,0
2016-03-27T02:44:07.314Z,0
2016-03-27T02:45:07.316Z,0
2016-03-27T02:46:07.287Z,0
2016-03-27T02:47:07.869Z,0
2016-03-27T02:48:07.497Z,0
2016-03-27T02:49:07.295Z,0
2016-03-27T02:50:07.267Z,0
2016-03-27T02:51:07.286Z,0
2016-03-27T02:52:07.272Z,0
2016-03-27T02:53:07.275Z,0
2016-03-27T02:54:07.294Z,0
2016-03-27T02:55:07.265Z,0
2016-03-27T02:56:07.252Z,0
2016-03-27T02:57:07.286Z,0
2016-03-27T02:58:07.273Z,0
2016-03-27T02:59:07.277Z,0
2016-03-27T03:00:07.279Z,0
2016-03-27T03:01:07.265Z,0
2016-03-27T03:02:07.566Z,0
2016-03-27T03:03:07.224Z,0
2016-03-27T03:04:07.243Z,0
2016-03-27T03:05:07.214Z,0
2016-03-27T03:06:07.232Z,0
2016-03-27T03:07:07.251Z,0
2016-03-27T03:08:07.207Z,0
2016-03-27T03:09:07.240Z,0
2016-03-27T03:10:07.242Z,0
2016-03-27T03:11:07.246Z,0
2016-03-27T03:12:07.217Z,0
2016-03-27T03:13:07.204Z,0
2016-03-27T03:14:07.254Z,0
2016-03-27T03:15:07.209Z,0
2016-03-27T03:16:07.197Z,0
2016-03-27T03:17:07.309Z,0
2016-03-27T03:18:07.202Z,0
2016-03-27T03:19:07.173Z,0
2016-03-27T03:20:07.208Z,0
2016-03-27T03:21:07.194Z,0
2016-03-27T03:22:07.167Z,0
2016-03-27T03:23:07.184Z,0
2016-03-27T03:24:07.171Z,0
2016-03-27T03:25:07.222Z,0
2016-03-27T03:26:07.208Z,0
2016-03-27T03:27:07.195Z,0
2016-03-27T03:28:07.057Z,0
2016-03-27T03:29:07.200Z,0
2016-03-27T03:30:07.140Z,0
2016-03-27T03:31:07.003Z,0
2016-03-27T03:32:07.271Z,0
2016-03-27T03:33:07.023Z,0
2016-03-27T03:34:07.152Z,0
2016-03-27T03:35:07.138Z,0
2016-03-27T03:36:07.156Z,0
2016-03-27T03:37:07.441Z,0
2016-03-27T03:38:07.146Z,0
2016-03-27T03:39:07.149Z,0
2016-03-27T03:40:07.168Z,0
2016-03-27T03:41:07.154Z,0
2016-03-27T03:42:07.157Z,0
2016-03-27T03:43:07.145Z,0
2016-03-27T03:44:07.131Z,0
2016-03-27T03:45:07.150Z,0
2016-03-27T03:46:07.121Z,0
2016-03-27T03:47:07.139Z,0
2016-03-27T03:48:07.111Z,0
2016-03-27T03:49:07.129Z,0
2016-03-27T03:50:07.116Z,0
2016-03-27T03:51:07.134Z,0
2016-03-27T03:52:07.137Z,0
2016-03-27T03:53:07.092Z,0
2016-03-27T03:54:07.111Z,0
2016-03-27T03:55:07.114Z,0
2016-03-27T03:56:07.100Z,0
2016-03-27T03:57:07.120Z,0
2016-03-27T03:58:07.091Z,0
2016-03-27T03:59:07.094Z,0
2016-03-27T04:00:07.080Z,0
2016-03-27T04:01:07.068Z,0
2016-03-27T04:02:07.102Z,0
2016-03-27T04:03:07.057Z,0
2016-03-27T04:04:07.076Z,0
2016-03-27T04:05:07.094Z,0
2016-03-27T04:06:07.082Z,0
2016-03-27T04:07:07.053Z,0
2016-03-27T04:08:07.089Z,0
2016-03-27T04:09:07.075Z,0
2016-03-27T04:10:07.062Z,0
2016-03-27T04:11:07.081Z,0
2016-03-27T04:12:07.067Z,0
2016-03-27T04:13:07.023Z,0
2016-03-27T04:14:07.355Z,0
2016-03-27T04:15:07.045Z,0
2016-03-27T04:16:07.031Z,0
2016-03-27T04:17:07.097Z,0
2016-03-27T04:18:07.069Z,0
2016-03-27T04:19:07.056Z,0
2016-03-27T04:20:07.042Z,0
2016-03-27T04:21:07.029Z,0
2016-03-27T04:22:07.033Z,0
2016-03-27T04:23:07.066Z,0
2016-03-27T04:24:07.053Z,0
2016-03-27T04:25:07.025Z,0
2016-03-27T04:26:07.012Z,0
2016-03-27T04:27:07.015Z,0
2016-03-27T04:28:06.986Z,0
2016-03-27T04:29:07.020Z,0
2016-03-27T04:30:07.006Z,0
2016-03-27T04:31:06.994Z,0
2016-03-27T04:32:07.012Z,0
2016-03-27T04:33:06.999Z,0
2016-03-27T04:34:07.002Z,0
2016-03-27T04:35:06.801Z,0
2016-03-27T04:36:07.242Z,0
2016-03-27T04:37:07.026Z,0
2016-03-27T04:38:07.013Z,0
2016-03-27T04:39:06.953Z,0
2016-03-27T04:40:06.971Z,0
2016-03-27T04:41:06.973Z,0
2016-03-27T04:42:06.962Z,0
2016-03-27T04:43:06.995Z,0
2016-03-27T04:44:06.981Z,0
2016-03-27T04:45:06.969Z,0
2016-03-27T04:46:06.925Z,0
2016-03-27T04:47:06.959Z,0
2016-03-27T04:48:06.977Z,0
2016-03-27T04:49:06.964Z,0
2016-03-27T04:50:06.952Z,0
2016-03-27T04:51:06.938Z,0
2016-03-27T04:52:06.972Z,0
2016-03-27T04:53:06.975Z,0
2016-03-27T04:54:06.977Z,0
2016-03-27T04:55:06.965Z,0
2016-03-27T04:56:06.983Z,0
2016-03-27T04:57:06.923Z,0
2016-03-27T04:58:06.926Z,0
2016-03-27T04:59:06.929Z,0
2016-03-27T05:00:06.915Z,0
2016-03-27T05:01:06.949Z,0
2016-03-27T05:02:06.937Z,0
2016-03-27T05:03:06.907Z,0
2016-03-27T05:04:07.207Z,0
2016-03-27T05:05:06.945Z,0
2016-03-27T05:06:06.915Z,0
2016-03-27T05:07:06.935Z,0
2016-03-27T05:08:06.921Z,5
2016-03-27T05:09:06.909Z,5
2016-03-27T05:10:06.896Z,5
2016-03-27T05:11:06.914Z,5
2016-03-27T05:12:06.901Z,5
2016-03-27T05:13:06.903Z,5
2016-03-27T05:14:06.891Z,5
2016-03-27T05:15:06.877Z,5
2016-03-27T05:16:06.881Z,10
2016-03-27T05:17:06.883Z,10
2016-03-27T05:18:07.167Z,10
2016-03-27T05:19:06.858Z,10
2016-03-27T05:20:06.907Z,10
2016-03-27T05:21:06.894Z,10
2016-03-27T05:22:06.881Z,10
2016-03-27T05:23:06.883Z,10
2016-03-27T05:24:06.918Z,15
2016-03-27T05:25:06.874Z,15
2016-03-27T05:26:06.876Z,15
2016-03-27T05:27:06.880Z,15
2016-03-27T05:28:06.850Z,15
2016-03-27T05:29:06.852Z,20
2016-03-27T05:30:06.872Z,20
2016-03-27T05:31:06.874Z,20
2016-03-27T05:32:06.845Z,20
2016-03-27T05:33:06.848Z,25
2016-03-27T05:34:06.882Z,25
2016-03-27T05:35:06.838Z,25
2016-03-27T05:36:06.841Z,25
2016-03-27T05:37:06.874Z,30
2016-03-27T05:38:06.876Z,30
2016-03-27T05:39:09.693Z,35
2016-03-27T05:40:06.851Z,35
2016-03-27T05:41:06.869Z,35
2016-03-27T05:42:06.810Z,40
2016-03-27T05:43:06.844Z,40
2016-03-27T05:44:06.831Z,40
2016-03-27T05:45:06.818Z,40
2016-03-27T05:46:06.820Z,40
2016-03-27T05:47:06.823Z,40
2016-03-27T05:48:06.825Z,45
2016-03-27T05:49:06.844Z,45
2016-03-27T05:50:06.847Z,45
2016-03-27T05:51:06.834Z,45
2016-03-27T05:52:07.024Z,45
2016-03-27T05:53:06.872Z,45
2016-03-27T05:54:06.827Z,50
2016-03-27T05:55:06.844Z,50
2016-03-27T05:56:06.816Z,50
2016-03-27T05:57:06.803Z,55
2016-03-27T05:58:06.790Z,55
2016-03-27T05:59:06.793Z,55
2016-03-27T06:00:06.827Z,55
2016-03-27T06:01:06.813Z,60
2016-03-27T06:02:06.802Z,60
2016-03-27T06:03:06.804Z,60
2016-03-27T06:04:06.775Z,60
2016-03-27T06:05:06.794Z,60
2016-03-27T06:06:06.827Z,60
2016-03-27T06:07:06.783Z,60
2016-03-27T06:08:06.787Z,65
2016-03-27T06:09:06.835Z,65
2016-03-27T06:10:06.792Z,70
2016-03-27T06:11:06.795Z,70
2016-03-27T06:12:06.828Z,75
2016-03-27T06:13:06.800Z,75
2016-03-27T06:14:06.787Z,65
2016-03-27T06:15:06.805Z,60
2016-03-27T06:16:06.775Z,60
2016-03-27T06:17:06.795Z,55
2016-03-27T06:18:06.797Z,55
2016-03-27T06:19:06.800Z,55
2016-03-27T06:20:06.834Z,55
2016-03-27T06:21:06.789Z,50
2016-03-27T06:22:06.824Z,50
2016-03-27T06:23:06.811Z,45
2016-03-27T06:24:06.813Z,45
2016-03-27T06:25:06.816Z,40
2016-03-27T06:26:06.803Z,40
2016-03-27T06:27:06.633Z,40
2016-03-27T06:28:06.794Z,45
2016-03-27T06:29:06.811Z,45
2016-03-27T06:30:06.766Z,45
2016-03-27T06:31:06.786Z,50
2016-03-27T06:32:06.772Z,50
2016-03-27T06:33:06.790Z,50
2016-03-27T06:34:06.794Z,50
2016-03-27T06:35:06.796Z,50
2016-03-27T06:36:06.799Z,55
2016-03-27T06:37:07.004Z,65
2016-03-27T06:38:06.804Z,70
2016-03-27T06:39:10.120Z,70
2016-03-27T06:40:06.793Z,75
2016-03-27T06:41:06.781Z,75
2016-03-27T06:42:06.799Z,80
2016-03-27T06:43:06.833Z,85
2016-03-27T06:44:06.759Z,90
2016-03-27T06:45:06.792Z,90
2016-03-27T06:46:06.795Z,90
2016-03-27T06:47:06.797Z,90
2016-03-27T06:48:06.831Z,90
2016-03-27T06:49:06.787Z,95
2016-03-27T06:50:06.775Z,95
2016-03-27T06:51:06.808Z,95
2016-03-27T06:52:06.795Z,95
2016-03-27T06:53:06.844Z,95
2016-03-27T06:54:06.800Z,95
2016-03-27T06:55:06.787Z,105
2016-03-27T06:56:06.759Z,115
2016-03-27T06:57:06.636Z,100
2016-03-27T06:58:06.763Z,80
2016-03-27T06:59:06.783Z,70
2016-03-27T07:00:06.801Z,55
2016-03-27T07:01:06.835Z,50
2016-03-27T07:02:06.760Z,50
2016-03-27T07:03:06.762Z,55
2016-03-27T07:04:06.655Z,55
2016-03-27T07:05:07.127Z,55
2016-03-27T07:06:06.645Z,55
2016-03-27T07:07:07.116Z,60
2016-03-27T07:08:06.791Z,65
2016-03-27T07:09:06.810Z,65
2016-03-27T07:10:06.812Z,70
2016-03-27T07:11:06.814Z,70
2016-03-27T07:12:06.802Z,70
2016-03-27T07:13:06.789Z,70
2016-03-27T07:14:06.791Z,65
2016-03-27T07:15:06.826Z,65
2016-03-27T07:16:06.797Z,65
2016-03-27T07:17:06.768Z,65
2016-03-27T07:18:06.803Z,65
2016-03-27T07:19:06.820Z,60
2016-03-27T07:20:06.823Z,55
2016-03-27T07:21:06.779Z,50
2016-03-27T07:22:06.828Z,50
2016-03-27T07:23:06.831Z,55
2016-03-27T07:24:09.803Z,55
2016-03-27T07:25:06.806Z,50
2016-03-27T07:26:06.839Z,50
2016-03-27T07:27:06.795Z,45
2016-03-27T07:28:06.783Z,40
2016-03-27T07:29:06.817Z,40
2016-03-27T07:30:06.818Z,35
2016-03-27T07:31:06.838Z,35
2016-03-27T07:32:06.793Z,35
2016-03-27T07:33:06.780Z,35
2016-03-27T07:34:06.830Z,30
2016-03-27T07:35:06.848Z,30
2016-03-27T07:36:07.007Z,30
2016-03-27T07:37:06.791Z,30
2016-03-27T07:38:07.090Z,30
2016-03-27T07:39:06.781Z,30
2016-03-27T07:40:06.784Z,30
2016-03-27T07:41:06.786Z,30
2016-03-27T07:42:06.836Z,30
2016-03-27T07:43:06.792Z,30
2016-03-27T07:44:06.809Z,35
2016-03-27T07:45:07.110Z,45
2016-03-27T07:46:06.643Z,50
2016-03-27T07:47:06.786Z,55
2016-03-27T07:48:06.851Z,60
2016-03-27T07:49:06.823Z,60
2016-03-27T07:50:06.842Z,55
2016-03-27T07:51:06.797Z,55
2016-03-27T07:52:06.862Z,50
2016-03-27T07:53:06.834Z,50
2016-03-27T07:54:06.852Z,55
2016-03-27T07:55:06.917Z,55
2016-03-27T07:56:06.920Z,60
2016-03-27T07:57:06.797Z,60
2016-03-27T07:58:07.098Z,60
2016-03-27T07:59:06.835Z,55
2016-03-27T08:00:06.821Z,55
2016-03-27T08:01:06.809Z,55
2016-03-27T08:02:06.843Z,60
2016-03-27T08:03:06.970Z,65
2016-03-27T08:04:06.832Z,65
2016-03-27T08:05:06.804Z,70
2016-03-27T08:06:06.868Z,75
2016-03-27T08:07:06.841Z,80
2016-03-27T08:08:06.843Z,80
2016-03-27T08:09:06.861Z,85
2016-03-27T08:10:06.833Z,85
2016-03-27T08:11:06.820Z,90
2016-03-27T08:12:06.822Z,95
2016-03-27T08:13:06.810Z,95
2016-03-27T08:14:06.843Z,95
2016-03-27T08:15:06.846Z,95
2016-03-27T08:16:06.865Z,100
2016-03-27T08:17:06.867Z,95
2016-03-27T08:18:06.948Z,95
2016-03-27T08:19:06.873Z,100
2016-03-27T08:20:06.844Z,100
2016-03-27T08:21:06.862Z,105
2016-03-27T08:22:06.834Z,105
2016-03-27T08:23:06.837Z,105
2016-03-27T08:24:06.839Z,105
2016-03-27T08:25:06.826Z,95
2016-03-27T08:26:06.860Z,85
2016-03-27T08:27:06.847Z,75
2016-03-27T08:28:06.850Z,70
2016-03-27T08:29:06.868Z,60
2016-03-27T08:30:06.871Z,55
2016-03-27T08:31:06.827Z,50
2016-03-27T08:32:06.861Z,55
2016-03-27T08:33:06.972Z,50
2016-03-27T08:34:06.850Z,50
2016-03-27T08:35:06.916Z,55
2016-03-27T08:36:06.855Z,50
2016-03-27T08:37:06.890Z,55
2016-03-27T08:38:06.908Z,55
2016-03-27T08:39:06.926Z,55
2016-03-27T08:40:06.914Z,65
2016-03-27T08:41:06.869Z,75
2016-03-27T08:42:06.856Z,85
2016-03-27T08:43:06.874Z,90
2016-03-27T08:44:06.893Z,95
2016-03-27T08:45:06.864Z,90
2016-03-27T08:46:06.914Z,85
2016-03-27T08:47:06.870Z,85
2016-03-27T08:48:06.950Z,85
2016-03-27T08:49:06.907Z,90
2016-03-27T08:50:06.893Z,95
2016-03-27T08:51:06.864Z,90
2016-03-27T08:52:06.759Z,90
2016-03-27T08:53:06.948Z,85
2016-03-27T08:54:06.903Z,70
2016-03-27T08:55:06.892Z,60
2016-03-27T08:56:06.894Z,60
2016-03-27T08:57:06.928Z,65
2016-03-27T08:58:06.931Z,65
2016-03-27T08:59:06.871Z,65
2016-03-27T09:00:07.061Z,65
2016-03-27T09:01:06.907Z,65
2016-03-27T09:02:06.894Z,70
2016-03-27T09:03:07.397Z,70
2016-03-27T09:04:06.884Z,70
2016-03-27T09:05:06.903Z,70
2016-03-27T09:06:06.921Z,70
2016-03-27T09:07:06.596Z,70
2016-03-27T09:08:06.893Z,70
2016-03-27T09:09:06.927Z,70
2016-03-27T09:10:06.930Z,70
2016-03-27T09:11:06.932Z,70
2016-03-27T09:12:06.950Z,75
2016-03-27T09:13:06.938Z,85
2016-03-27T09:14:06.941Z,90
2016-03-27T09:15:06.943Z,90
2016-03-27T09:16:06.946Z,95
2016-03-27T09:17:06.933Z,90
2016-03-27T09:18:07.076Z,85
2016-03-27T09:19:06.923Z,90
2016-03-27T09:20:06.941Z,90
2016-03-27T09:21:06.943Z,90
2016-03-27T09:22:06.916Z,95
2016-03-27T09:23:06.965Z,90
2016-03-27T09:24:06.916Z,90
2016-03-27T09:25:06.969Z,95
2016-03-27T09:26:06.975Z,95
2016-03-27T09:27:06.935Z,100
2016-03-27T09:28:06.926Z,105
2016-03-27T09:29:06.904Z,110
2016-03-27T09:30:06.903Z,110
2016-03-27T09:31:06.870Z,110
2016-03-27T09:32:06.899Z,110
2016-03-27T09:33:07.039Z,105
2016-03-27T09:34:06.913Z,105
2016-03-27T09:35:06.883Z,105
2016-03-27T09:36:06.899Z,115
2016-03-27T09:37:06.886Z,135
2016-03-27T09:38:06.871Z,160
2016-03-27T09:39:06.920Z,170
2016-03-27T09:40:06.891Z,180
2016-03-27T09:41:06.908Z,190
2016-03-27T09:42:06.880Z,200
2016-03-27T09:43:06.912Z,200
2016-03-27T09:44:06.914Z,200
2016-03-27T09:45:06.886Z,190
2016-03-27T09:46:06.888Z,180
2016-03-27T09:47:06.907Z,175
2016-03-27T09:48:07.190Z,170
2016-03-27T09:49:06.942Z,165
2016-03-27T09:50:06.914Z,160
2016-03-27T09:51:06.932Z,155
2016-03-27T09:52:06.920Z,145
2016-03-27T09:53:06.906Z,135
2016-03-27T09:54:06.925Z,125
2016-03-27T09:55:06.942Z,120
2016-03-27T09:56:06.962Z,115
2016-03-27T09:57:06.933Z,110
2016-03-27T09:58:06.935Z,110
2016-03-27T09:59:06.954Z,105
2016-03-27T10:00:06.941Z,105
2016-03-27T10:01:06.974Z,100
2016-03-27T10:02:06.915Z,100
2016-03-27T10:03:07.105Z,100
2016-03-27T10:04:06.952Z,100
2016-03-27T10:05:06.955Z,105
2016-03-27T10:06:06.957Z,110
2016-03-27T10:07:06.928Z,115
2016-03-27T10:08:06.963Z,120
2016-03-27T10:09:09.980Z,120
2016-03-27T10:10:06.968Z,130
2016-03-27T10:11:07.017Z,145
2016-03-27T10:12:07.019Z,155
2016-03-27T10:13:06.976Z,150
2016-03-27T10:14:06.979Z,150
2016-03-27T10:15:07.027Z,155
2016-03-27T10:16:07.015Z,160
2016-03-27T10:17:07.002Z,165
2016-03-27T10:18:07.114Z,165
2016-03-27T10:19:07.023Z,165
2016-03-27T10:20:06.995Z,165
2016-03-27T10:21:06.997Z,165
2016-03-27T10:22:07.016Z,170
2016-03-27T10:23:06.987Z,185
2016-03-27T10:24:07.051Z,200
2016-03-27T10:25:07.024Z,210
2016-03-27T10:26:07.011Z,215
2016-03-27T10:27:07.247Z,215
2016-03-27T10:28:07.032Z,210
2016-03-27T10:29:07.050Z,210
2016-03-27T10:30:07.022Z,205
2016-03-27T10:31:07.055Z,200
2016-03-27T10:32:06.995Z,190
2016-03-27T10:33:07.075Z,175
2016-03-27T10:34:07.033Z,175
2016-03-27T10:35:07.066Z,180
2016-03-27T10:36:07.037Z,185
2016-03-27T10:37:07.056Z,190
2016-03-27T10:38:07.058Z,200
2016-03-27T10:39:07.061Z,210
2016-03-27T10:40:07.095Z,215
2016-03-27T10:41:07.082Z,215
2016-03-27T10:42:06.913Z,200
2016-03-27T10:43:10.072Z,185
2016-03-27T10:44:07.090Z,185
2016-03-27T10:45:06.921Z,195
2016-03-27T10:46:07.096Z,210
2016-03-27T10:47:07.130Z,215
2016-03-27T10:48:07.086Z,230
2016-03-27T10:49:07.073Z,245
2016-03-27T10:50:07.106Z,255
2016-03-27T10:51:07.093Z,270
2016-03-27T10:52:07.112Z,275
2016-03-27T10:53:07.098Z,275
2016-03-27T10:54:07.086Z,275
2016-03-27T10:55:07.104Z,275
2016-03-27T10:56:07.123Z,260
2016-03-27T10:57:07.109Z,250
2016-03-27T10:58:07.159Z,240
2016-03-27T10:59:07.146Z,250
2016-03-27T11:00:07.102Z,255
2016-03-27T11:01:07.151Z,270
2016-03-27T11:02:07.139Z,280
2016-03-27T11:03:07.141Z,280
2016-03-27T11:04:07.160Z,280
2016-03-27T11:05:07.178Z,275
2016-03-27T11:06:07.180Z,270
2016-03-27T11:07:07.168Z,270
2016-03-27T11:08:07.170Z,275
2016-03-27T11:09:07.219Z,285
2016-03-27T11:10:07.004Z,290
2016-03-27T11:11:07.225Z,295
2016-03-27T11:12:07.228Z,295
2016-03-27T11:13:07.183Z,295
2016-03-27T11:14:07.186Z,295
2016-03-27T11:15:10.205Z,290
2016-03-27T11:16:07.223Z,285
2016-03-27T11:17:07.194Z,280
2016-03-27T11:18:07.182Z,270
2016-03-27T11:19:07.215Z,260
2016-03-27T11:20:07.219Z,260
2016-03-27T11:21:07.252Z,265
2016-03-27T11:22:07.223Z,275
2016-03-27T11:23:07.243Z,295
2016-03-27T11:24:07.245Z,320
2016-03-27T11:25:07.247Z,340
2016-03-27T11:26:07.078Z,355
2016-03-27T11:27:07.096Z,345
2016-03-27T11:28:07.256Z,325
2016-03-27T11:29:07.258Z,310
2016-03-27T11:30:07.229Z,305
2016-03-27T11:31:07.264Z,300
2016-03-27T11:32:07.250Z,295
2016-03-27T11:33:07.237Z,295
2016-03-27T11:34:07.240Z,300
2016-03-27T11:35:07.259Z,300
2016-03-27T11:36:07.309Z,295
2016-03-27T11:37:07.280Z,295
2016-03-27T11:38:07.344Z,305
2016-03-27T11:39:07.285Z,300
2016-03-27T11:40:07.288Z,300
2016-03-27T11:41:07.306Z,295
2016-03-27T11:42:07.324Z,280
2016-03-27T11:43:07.343Z,275
2016-03-27T11:44:07.299Z,270
2016-03-27T11:45:07.301Z,260
2016-03-27T11:46:07.351Z,260
2016-03-27T11:47:07.307Z,255
2016-03-27T11:48:07.418Z,255
2016-03-27T11:49:07.343Z,255
2016-03-27T11:50:07.362Z,250
2016-03-27T11:51:07.349Z,240
2016-03-27T11:52:07.367Z,230
2016-03-27T11:53:07.401Z,220
2016-03-27T11:54:07.373Z,210
2016-03-27T11:55:07.421Z,205
2016-03-27T11:56:07.378Z,200
2016-03-27T11:57:07.365Z,205
2016-03-27T11:58:07.696Z,220
2016-03-27T11:59:07.417Z,225
2016-03-27T12:00:07.420Z,220
2016-03-27T12:01:07.423Z,215
2016-03-27T12:02:07.394Z,215
2016-03-27T12:03:07.427Z,210
2016-03-27T12:04:07.400Z,215
2016-03-27T12:05:07.448Z,215
2016-03-27T12:06:07.498Z,225
2016-03-27T12:07:07.408Z,230
2016-03-27T12:08:07.441Z,230
2016-03-27T12:09:07.428Z,220
2016-03-27T12:10:07.478Z,210
2016-03-27T12:11:07.497Z,205
2016-03-27T12:12:07.467Z,200
2016-03-27T12:13:07.439Z,200
2016-03-27T12:14:07.504Z,195
2016-03-27T12:15:07.491Z,195
2016-03-27T12:16:07.446Z,200
2016-03-27T12:17:07.481Z,205
2016-03-27T12:18:07.702Z,205
2016-03-27T12:19:07.486Z,205
2016-03-27T12:20:07.473Z,215
2016-03-27T12:21:07.492Z,230
2016-03-27T12:22:07.510Z,245
2016-03-27T12:23:07.496Z,270
2016-03-27T12:24:07.500Z,290
2016-03-27T12:25:07.471Z,320
2016-03-27T12:26:07.473Z,340
2016-03-27T12:27:07.507Z,345
2016-03-27T12:28:07.510Z,340
2016-03-27T12:29:07.513Z,330
2016-03-27T12:30:07.547Z,325
2016-03-27T12:31:07.518Z,325
2016-03-27T12:32:07.521Z,320
2016-03-27T12:33:07.523Z,320
2016-03-27T12:34:07.542Z,320
2016-03-27T12:35:07.545Z,320
2016-03-27T12:36:07.532Z,300
2016-03-27T12:37:07.534Z,285
2016-03-27T12:38:07.537Z,280
2016-03-27T12:39:07.587Z,275
2016-03-27T12:40:07.542Z,270
2016-03-27T12:41:07.561Z,275
2016-03-27T12:42:07.844Z,280
2016-03-27T12:43:07.567Z,285
2016-03-27T12:44:07.569Z,305
2016-03-27T12:45:07.587Z,305
2016-03-27T12:46:07.387Z,310
2016-03-27T12:47:07.390Z,310
2016-03-27T12:48:07.611Z,285
2016-03-27T12:49:07.598Z,270
2016-03-27T12:50:07.586Z,250
2016-03-27T12:51:07.588Z,235
2016-03-27T12:52:07.574Z,220
2016-03-27T12:53:07.641Z,215
2016-03-27T12:54:07.627Z,210
2016-03-27T12:55:07.583Z,210
2016-03-27T12:56:07.617Z,220
2016-03-27T12:57:07.635Z,235
2016-03-27T12:58:07.638Z,240
2016-03-27T12:59:07.656Z,240
2016-03-27T13:00:07.659Z,245
2016-03-27T13:01:07.678Z,240
2016-03-27T13:02:07.898Z,240
2016-03-27T13:03:07.683Z,245
2016-03-27T13:04:07.529Z,250
2016-03-27T13:05:07.704Z,255
2016-03-27T13:06:07.769Z,280
2016-03-27T13:07:07.678Z,295
2016-03-27T13:08:07.711Z,305
2016-03-27T13:09:07.542Z,305
2016-03-27T13:10:07.748Z,305
2016-03-27T13:11:08.001Z,290
2016-03-27T13:12:07.707Z,265
2016-03-27T13:13:07.725Z,235
2016-03-27T13:14:07.713Z,220
2016-03-27T13:15:07.730Z,220
2016-03-27T13:16:07.530Z,235
2016-03-27T13:17:07.736Z,250
2016-03-27T13:18:07.739Z,245
2016-03-27T13:19:07.914Z,230
2016-03-27T13:20:07.760Z,210
2016-03-27T13:21:07.763Z,195
2016-03-27T13:22:07.780Z,190
2016-03-27T13:23:07.798Z,185
2016-03-27T13:24:07.771Z,180
2016-03-27T13:25:10.773Z,175
2016-03-27T13:26:07.745Z,175
2016-03-27T13:27:07.763Z,170
2016-03-27T13:28:07.766Z,160
2016-03-27T13:29:07.784Z,150
2016-03-27T13:30:07.755Z,145
2016-03-27T13:31:07.790Z,140
2016-03-27T13:32:07.761Z,135
2016-03-27T13:33:07.764Z,130
2016-03-27T13:34:07.829Z,140
2016-03-27T13:35:07.612Z,140
2016-03-27T13:36:07.787Z,135
2016-03-27T13:37:07.774Z,135
2016-03-27T13:38:07.777Z,140
2016-03-27T13:39:07.780Z,150
2016-03-27T13:40:07.829Z,165
2016-03-27T13:41:07.644Z,185
2016-03-27T13:42:07.819Z,205
2016-03-27T13:43:07.853Z,210
2016-03-27T13:44:07.808Z,205
2016-03-27T13:45:07.077Z,205
2016-03-27T13:46:07.814Z,200
2016-03-27T13:47:07.816Z,195
2016-03-27T13:48:07.836Z,200
2016-03-27T13:49:08.494Z,210
2016-03-27T13:50:08.449Z,215
2016-03-27T13:51:07.858Z,225
2016-03-27T13:52:07.829Z,230
2016-03-27T13:53:07.833Z,230
2016-03-27T13:54:07.851Z,230
2016-03-27T13:55:08.057Z,230
2016-03-27T13:56:07.888Z,225
2016-03-27T13:57:07.875Z,230
2016-03-27T13:58:07.862Z,240
2016-03-27T13:59:07.942Z,235
2016-03-27T14:00:07.899Z,235
2016-03-27T14:01:08.104Z,230
2016-03-27T14:02:07.857Z,230
2016-03-27T14:03:07.890Z,235
2016-03-27T14:04:08.237Z,235
2016-03-27T14:05:07.928Z,230
2016-03-27T14:06:07.883Z,220
2016-03-27T14:07:07.761Z,215
2016-03-27T14:08:07.904Z,215
2016-03-27T14:09:08.220Z,225
2016-03-27T14:10:07.941Z,240
2016-03-27T14:11:08.131Z,250
2016-03-27T14:12:07.775Z,250
2016-03-27T14:13:07.964Z,235
2016-03-27T14:14:07.936Z,215
2016-03-27T14:15:07.955Z,190
2016-03-27T14:16:07.958Z,175